createdAt,value
2023-04-24T00:00:54.859Z,82.82
2023-04-24T00:01:59.921Z,83.73
2023-04-24T00:02:55.120Z,83.29
2023-04-24T00:03:54.977Z,83.63
2023-04-24T00:04:54.862Z,82.31
2023-04-24T00:05:54.789Z,82.82
2023-04-24T00:06:54.809Z,82.82
2023-04-24T00:07:54.767Z,82.71
2023-04-24T00:08:54.755Z,82.92
2023-04-24T00:09:54.751Z,82.51
2023-04-24T00:10:54.730Z,82.71
2023-04-24T00:11:54.768Z,83.18
2023-04-24T00:12:59.744Z,82.27
2023-04-24T00:13:54.700Z,82.47
2023-04-24T00:14:54.692Z,82.57
2023-04-24T00:15:54.679Z,82.57
2023-04-24T00:16:54.673Z,82.68
2023-04-24T00:17:54.682Z,82.47
2023-04-24T00:18:54.668Z,82.57
2023-04-24T00:19:54.635Z,82.21
2023-04-24T00:20:54.612Z,82.37
2023-04-24T00:21:54.604Z,82.57
2023-04-24T00:22:54.611Z,82.27
2023-04-24T00:23:59.614Z,82.47
2023-04-24T00:24:54.599Z,82.27
2023-04-24T00:25:54.575Z,82.37
2023-04-24T00:26:54.548Z,82.57
2023-04-24T00:27:54.539Z,82.57
2023-04-24T00:28:54.527Z,82.37
2023-04-24T00:29:54.529Z,82.57
2023-04-24T00:30:54.516Z,82.47
2023-04-24T00:31:54.541Z,82.47
2023-04-24T00:32:54.554Z,82.37
2023-04-24T00:33:54.469Z,83.39
2023-04-24T00:34:59.493Z,82.71
2023-04-24T00:35:54.450Z,83.33
2023-04-24T00:36:54.446Z,83.23
2023-04-24T00:37:54.426Z,83.43
2023-04-24T00:38:54.430Z,83.59
2023-04-24T00:39:54.418Z,83.23
2023-04-24T00:40:54.386Z,83.29
2023-04-24T00:41:54.379Z,82.57
2023-04-24T00:42:54.383Z,82.47
2023-04-24T00:43:54.359Z,82.88
2023-04-24T00:44:54.350Z,82.27
2023-04-24T00:45:59.402Z,82.88
2023-04-24T00:46:54.321Z,82.57
2023-04-24T00:47:54.394Z,82.68
2023-04-24T00:48:54.325Z,83.39
2023-04-24T00:49:54.296Z,83.59
2023-04-24T00:50:54.272Z,83.39
2023-04-24T00:51:54.264Z,83.09
2023-04-24T00:52:54.309Z,83.12
2023-04-24T00:53:54.243Z,83.18
2023-04-24T00:54:54.270Z,83.33
2023-04-24T00:55:54.224Z,83.59
2023-04-24T00:56:59.228Z,83.33
2023-04-24T00:57:54.196Z,83.63
2023-04-24T00:58:54.182Z,83.23
2023-04-24T00:59:54.184Z,83.33
2023-04-24T01:00:54.202Z,83.53
2023-04-24T01:01:54.206Z,83.84
2023-04-24T01:02:54.230Z,83.43
2023-04-24T01:03:54.301Z,84.34
2023-04-24T01:04:54.147Z,83.94
2023-04-24T01:05:54.109Z,84.34
2023-04-24T01:06:54.126Z,83.94
2023-04-24T01:07:59.107Z,84.11
2023-04-24T01:08:54.074Z,84.11
2023-04-24T01:09:54.122Z,84.14
2023-04-24T01:10:54.076Z,83.90
2023-04-24T01:11:54.041Z,84.14
2023-04-24T01:12:54.049Z,84.34
2023-04-24T01:13:54.027Z,84.04
2023-04-24T01:14:54.020Z,84.14
2023-04-24T01:15:54.044Z,83.90
2023-04-24T01:16:53.980Z,84.45
2023-04-24T01:17:54.037Z,84.25
2023-04-24T01:18:59.003Z,84.45
2023-04-24T01:19:53.968Z,83.84
2023-04-24T01:20:53.941Z,83.73
2023-04-24T01:21:53.940Z,84.41
2023-04-24T01:22:53.916Z,83.90
2023-04-24T01:23:53.920Z,84.45
2023-04-24T01:24:53.925Z,84.25
2023-04-24T01:25:53.890Z,84.55
2023-04-24T01:26:53.889Z,83.94
2023-04-24T01:27:53.860Z,83.43
2023-04-24T01:28:53.847Z,83.73
2023-04-24T01:29:58.904Z,83.53
2023-04-24T01:30:53.879Z,84.14
2023-04-24T01:31:53.813Z,83.53
2023-04-24T01:32:53.862Z,83.63
2023-04-24T01:33:53.795Z,84.25
2023-04-24T01:34:53.776Z,84.14
2023-04-24T01:35:53.787Z,83.94
2023-04-24T01:36:53.774Z,83.94
2023-04-24T01:37:53.801Z,84.45
2023-04-24T01:38:53.736Z,84.45
2023-04-24T01:39:53.725Z,84.25
2023-04-24T01:40:58.758Z,83.94
2023-04-24T01:41:53.706Z,84.04
2023-04-24T01:42:53.712Z,84.45
2023-04-24T01:43:53.679Z,83.53
2023-04-24T01:44:53.693Z,83.84
2023-04-24T01:45:53.670Z,83.73
2023-04-24T01:46:53.665Z,84.25
2023-04-24T01:47:53.641Z,84.14
2023-04-24T01:48:53.641Z,84.14
2023-04-24T01:49:53.610Z,84.25
2023-04-24T01:50:53.602Z,84.25
2023-04-24T01:51:58.608Z,84.14
2023-04-24T01:52:53.581Z,84.25
2023-04-24T01:53:53.577Z,84.66
2023-04-24T01:54:53.587Z,84.04
2023-04-24T01:55:53.561Z,84.45
2023-04-24T01:56:53.544Z,84.45
2023-04-24T01:57:53.518Z,84.25
2023-04-24T01:58:53.527Z,83.63
2023-04-24T01:59:53.498Z,84.34
2023-04-24T02:00:53.556Z,84.14
2023-04-24T02:01:53.524Z,83.23
2023-04-24T02:02:58.638Z,83.23
2023-04-24T02:03:53.570Z,83.94
2023-04-24T02:04:53.436Z,83.53
2023-04-24T02:05:53.438Z,83.53
2023-04-24T02:06:53.438Z,83.73
2023-04-24T02:07:53.413Z,83.53
2023-04-24T02:08:53.392Z,83.84
2023-04-24T02:09:53.388Z,83.73
2023-04-24T02:10:53.397Z,83.53
2023-04-24T02:11:53.356Z,83.94
2023-04-24T02:12:53.358Z,83.73
2023-04-24T02:13:58.374Z,83.84
2023-04-24T02:14:53.324Z,83.49
2023-04-24T02:15:53.322Z,83.12
2023-04-24T02:16:53.524Z,83.53
2023-04-24T02:17:53.340Z,83.29
2023-04-24T02:18:53.297Z,83.63
2023-04-24T02:19:53.262Z,83.63
2023-04-24T02:20:53.265Z,83.23
2023-04-24T02:21:53.241Z,83.53
2023-04-24T02:22:53.243Z,83.73
2023-04-24T02:23:53.217Z,83.39
2023-04-24T02:24:58.274Z,82.92
2023-04-24T02:25:53.203Z,83.73
2023-04-24T02:26:53.189Z,83.53
2023-04-24T02:27:53.178Z,83.73
2023-04-24T02:28:53.161Z,83.84
2023-04-24T02:29:53.328Z,83.84
2023-04-24T02:30:53.173Z,83.73
2023-04-24T02:31:53.151Z,83.73
2023-04-24T02:32:53.116Z,83.94
2023-04-24T02:33:53.103Z,83.94
2023-04-24T02:34:53.113Z,84.25
2023-04-24T02:35:58.120Z,84.45
2023-04-24T02:36:53.083Z,83.73
2023-04-24T02:37:53.061Z,84.45
2023-04-24T02:38:53.051Z,84.75
2023-04-24T02:39:53.058Z,84.55
2023-04-24T02:40:53.036Z,85.37
2023-04-24T02:41:53.015Z,85.57
2023-04-24T02:42:53.025Z,85.77
2023-04-24T02:43:52.997Z,85.98
2023-04-24T02:44:52.982Z,87.20
2023-04-24T02:45:53.037Z,87.85
2023-04-24T02:46:57.992Z,88.88
2023-04-24T02:47:52.992Z,88.71
2023-04-24T02:48:52.952Z,88.61
2023-04-24T02:49:52.921Z,89.12
2023-04-24T02:50:52.936Z,89.47
2023-04-24T02:51:52.912Z,89.17
2023-04-24T02:52:52.888Z,89.98
2023-04-24T02:53:52.878Z,89.72
2023-04-24T02:54:52.886Z,90.02
2023-04-24T02:55:52.851Z,89.20
2023-04-24T02:56:52.850Z,89.82
2023-04-24T02:57:57.849Z,89.56
2023-04-24T02:58:52.818Z,90.47
2023-04-24T02:59:52.805Z,90.68
2023-04-24T03:00:52.941Z,90.43
2023-04-24T03:01:52.806Z,90.78
2023-04-24T03:02:52.860Z,90.53
2023-04-24T03:03:52.918Z,90.58
2023-04-24T03:04:52.756Z,90.78
2023-04-24T03:05:52.775Z,90.43
2023-04-24T03:06:52.754Z,90.53
2023-04-24T03:07:52.713Z,90.53
2023-04-24T03:08:57.722Z,91.05
2023-04-24T03:09:52.688Z,90.94
2023-04-24T03:10:52.691Z,91.05
2023-04-24T03:11:52.667Z,91.56
2023-04-24T03:12:52.670Z,91.46
2023-04-24T03:13:52.660Z,92.47
2023-04-24T03:14:52.641Z,92.64
2023-04-24T03:15:52.730Z,91.35
2023-04-24T03:16:52.620Z,91.05
2023-04-24T03:17:54.228Z,91.05
2023-04-24T03:18:52.627Z,91.05
2023-04-24T03:19:57.600Z,90.47
2023-04-24T03:20:52.566Z,90.84
2023-04-24T03:21:52.567Z,90.64
2023-04-24T03:22:52.555Z,88.12
2023-04-24T03:23:52.532Z,86.29
2023-04-24T03:24:52.542Z,85.57
2023-04-24T03:25:52.510Z,86.08
2023-04-24T03:26:52.509Z,85.97
2023-04-24T03:27:52.489Z,86.08
2023-04-24T03:28:52.477Z,86.69
2023-04-24T03:29:52.468Z,86.44
2023-04-24T03:30:57.503Z,86.14
2023-04-24T03:31:52.632Z,86.79
2023-04-24T03:32:52.471Z,88.08
2023-04-24T03:33:52.443Z,85.97
2023-04-24T03:34:52.420Z,86.79
2023-04-24T03:35:52.395Z,86.49
2023-04-24T03:36:52.415Z,86.49
2023-04-24T03:37:52.378Z,85.97
2023-04-24T03:38:52.363Z,85.67
2023-04-24T03:39:52.349Z,85.88
2023-04-24T03:40:52.356Z,85.77
2023-04-24T03:41:57.359Z,86.08
2023-04-24T03:42:52.333Z,85.97
2023-04-24T03:43:52.309Z,85.57
2023-04-24T03:44:52.305Z,85.36
2023-04-24T03:45:52.311Z,84.85
2023-04-24T03:46:52.285Z,85.26
2023-04-24T03:47:52.293Z,85.10
2023-04-24T03:48:52.270Z,84.55
2023-04-24T03:49:52.269Z,85.06
2023-04-24T03:50:52.233Z,84.75
2023-04-24T03:51:52.221Z,84.75
2023-04-24T03:52:57.231Z,85.26
2023-04-24T03:53:52.190Z,85.26
2023-04-24T03:54:52.202Z,84.69
2023-04-24T03:55:52.165Z,84.55
2023-04-24T03:56:52.186Z,82.50
2023-04-24T03:57:52.145Z,82.75
2023-04-24T03:58:52.132Z,82.70
2023-04-24T03:59:52.119Z,82.20
2023-04-24T04:00:52.142Z,81.68
2023-04-24T04:01:52.170Z,82.34
2023-04-24T04:02:52.277Z,82.70
2023-04-24T04:03:57.272Z,82.84
2023-04-24T04:04:52.173Z,82.91
2023-04-24T04:05:52.079Z,83.56
2023-04-24T04:06:52.077Z,83.36
2023-04-24T04:07:52.038Z,82.70
2023-04-24T04:08:52.032Z,82.81
2023-04-24T04:09:52.013Z,82.64
2023-04-24T04:10:51.999Z,82.75
2023-04-24T04:11:52.004Z,82.34
2023-04-24T04:12:51.990Z,81.62
2023-04-24T04:13:51.972Z,82.13
2023-04-24T04:14:56.985Z,81.82
2023-04-24T04:15:51.978Z,82.03
2023-04-24T04:16:54.576Z,81.82
2023-04-24T04:17:52.040Z,82.34
2023-04-24T04:18:51.939Z,83.46
2023-04-24T04:19:51.893Z,82.54
2023-04-24T04:20:51.885Z,83.46
2023-04-24T04:21:51.908Z,83.46
2023-04-24T04:22:51.865Z,83.56
2023-04-24T04:23:51.847Z,81.93
2023-04-24T04:24:51.867Z,82.64
2023-04-24T04:25:56.849Z,83.15
2023-04-24T04:26:51.824Z,83.05
2023-04-24T04:27:51.800Z,82.75
2023-04-24T04:28:51.818Z,82.75
2023-04-24T04:29:51.787Z,82.43
2023-04-24T04:30:51.802Z,82.54
2023-04-24T04:31:51.881Z,82.03
2023-04-24T04:32:51.757Z,82.54
2023-04-24T04:33:51.736Z,83.25
2023-04-24T04:34:51.728Z,82.43
2023-04-24T04:35:51.715Z,81.62
2023-04-24T04:36:56.761Z,81.41
2023-04-24T04:37:51.694Z,82.37
2023-04-24T04:38:51.690Z,82.95
2023-04-24T04:39:51.692Z,82.98
2023-04-24T04:40:51.659Z,81.96
2023-04-24T04:41:51.657Z,82.48
2023-04-24T04:42:51.682Z,82.48
2023-04-24T04:43:51.626Z,82.57
2023-04-24T04:44:51.614Z,83.19
2023-04-24T04:45:51.647Z,82.17
2023-04-24T04:46:51.602Z,82.37
2023-04-24T04:47:56.700Z,82.37
2023-04-24T04:48:51.587Z,81.72
2023-04-24T04:49:51.573Z,82.23
2023-04-24T04:50:51.547Z,81.86
2023-04-24T04:51:51.544Z,82.48
2023-04-24T04:52:51.551Z,83.09
2023-04-24T04:53:51.517Z,82.07
2023-04-24T04:54:51.523Z,81.86
2023-04-24T04:55:51.490Z,82.27
2023-04-24T04:56:51.489Z,81.86
2023-04-24T04:57:51.466Z,81.56
2023-04-24T04:58:56.483Z,82.17
2023-04-24T04:59:51.444Z,81.86
2023-04-24T05:00:51.495Z,81.56
2023-04-24T05:01:51.429Z,80.83
2023-04-24T05:02:51.613Z,80.94
2023-04-24T05:03:51.508Z,81.45
2023-04-24T05:04:51.711Z,80.74
2023-04-24T05:05:51.381Z,80.74
2023-04-24T05:06:51.397Z,80.53
2023-04-24T05:07:51.357Z,80.39
2023-04-24T05:08:51.366Z,79.91
2023-04-24T05:09:56.363Z,79.82
2023-04-24T05:10:51.323Z,80.80
2023-04-24T05:11:51.321Z,79.98
2023-04-24T05:12:51.322Z,80.90
2023-04-24T05:13:51.295Z,80.69
2023-04-24T05:14:51.277Z,80.69
2023-04-24T05:15:51.270Z,81.01
2023-04-24T05:16:51.288Z,79.27
2023-04-24T05:17:51.287Z,80.69
2023-04-24T05:18:51.252Z,79.88
2023-04-24T05:19:51.225Z,79.06
2023-04-24T05:20:56.233Z,80.49
2023-04-24T05:21:51.212Z,79.88
2023-04-24T05:22:51.192Z,80.25
2023-04-24T05:23:51.175Z,79.53
2023-04-24T05:24:51.191Z,79.23
2023-04-24T05:25:51.157Z,79.43
2023-04-24T05:26:51.157Z,79.13
2023-04-24T05:27:51.132Z,78.72
2023-04-24T05:28:51.122Z,78.20
2023-04-24T05:29:51.115Z,78.52
2023-04-24T05:30:51.114Z,78.61
2023-04-24T05:31:56.232Z,79.33
2023-04-24T05:32:51.090Z,79.19
2023-04-24T05:33:51.064Z,78.17
2023-04-24T05:34:51.055Z,78.27
2023-04-24T05:35:51.043Z,78.07
2023-04-24T05:36:51.058Z,76.74
2023-04-24T05:37:51.070Z,77.08
2023-04-24T05:38:51.009Z,76.67
2023-04-24T05:39:50.993Z,75.92
2023-04-24T05:40:51.016Z,75.10
2023-04-24T05:41:50.984Z,74.46
2023-04-24T05:42:56.018Z,74.66
2023-04-24T05:43:50.981Z,74.42
2023-04-24T05:44:53.253Z,74.22
2023-04-24T05:45:50.931Z,74.11
2023-04-24T05:46:51.021Z,72.79
2023-04-24T05:47:50.958Z,72.79
2023-04-24T05:48:50.905Z,72.72
2023-04-24T05:49:50.902Z,72.08
2023-04-24T05:50:50.871Z,71.87
2023-04-24T05:51:50.870Z,70.65
2023-04-24T05:52:50.854Z,71.26
2023-04-24T05:53:55.861Z,71.12
2023-04-24T05:54:50.843Z,70.48
2023-04-24T05:55:50.835Z,69.84
2023-04-24T05:56:50.861Z,69.67
2023-04-24T05:57:50.796Z,68.88
2023-04-24T05:58:50.782Z,68.57
2023-04-24T05:59:50.771Z,68.81
2023-04-24T06:00:50.781Z,69.93
2023-04-24T06:01:50.807Z,70.07
2023-04-24T06:02:50.935Z,70.57
2023-04-24T06:03:50.845Z,70.31
2023-04-24T06:04:55.820Z,70.81
2023-04-24T06:05:50.703Z,70.72
2023-04-24T06:06:50.709Z,70.72
2023-04-24T06:07:50.724Z,71.33
2023-04-24T06:08:50.667Z,71.15
2023-04-24T06:09:50.670Z,71.02
2023-04-24T06:10:50.644Z,71.02
2023-04-24T06:11:50.639Z,71.19
2023-04-24T06:12:50.639Z,71.19
2023-04-24T06:13:50.625Z,70.98
2023-04-24T06:14:50.602Z,70.98
2023-04-24T06:15:55.625Z,72.31
2023-04-24T06:16:50.718Z,72.14
2023-04-24T06:17:50.591Z,71.80
2023-04-24T06:18:50.551Z,70.89
2023-04-24T06:19:50.561Z,72.41
2023-04-24T06:20:50.540Z,72.86
2023-04-24T06:21:50.528Z,72.21
2023-04-24T06:22:50.508Z,72.75
2023-04-24T06:23:50.495Z,72.55
2023-04-24T06:24:50.485Z,72.75
2023-04-24T06:25:50.487Z,73.23
2023-04-24T06:26:55.491Z,74.25
2023-04-24T06:27:50.465Z,73.54
2023-04-24T06:28:50.463Z,74.15
2023-04-24T06:29:50.431Z,74.69
2023-04-24T06:30:50.417Z,75.20
2023-04-24T06:31:50.426Z,75.41
2023-04-24T06:32:50.428Z,76.84
2023-04-24T06:33:50.400Z,77.48
2023-04-24T06:34:50.370Z,77.59
2023-04-24T06:35:50.357Z,79.52
2023-04-24T06:36:50.352Z,78.41
2023-04-24T06:37:55.389Z,79.66
2023-04-24T06:38:50.321Z,82.12
2023-04-24T06:39:50.311Z,81.34
2023-04-24T06:40:50.301Z,81.74
2023-04-24T06:41:50.290Z,82.05
2023-04-24T06:42:50.374Z,82.46
2023-04-24T06:43:50.278Z,82.60
2023-04-24T06:44:50.282Z,83.01
2023-04-24T06:45:50.284Z,83.73
2023-04-24T06:46:50.230Z,84.58
2023-04-24T06:47:50.280Z,84.48
2023-04-24T06:48:55.232Z,84.28
2023-04-24T06:49:50.223Z,83.56
2023-04-24T06:50:50.185Z,83.97
2023-04-24T06:51:50.174Z,83.87
2023-04-24T06:52:50.172Z,82.64
2023-04-24T06:53:50.153Z,82.95
2023-04-24T06:54:50.146Z,82.75
2023-04-24T06:55:50.149Z,82.43
2023-04-24T06:56:50.133Z,82.95
2023-04-24T06:57:50.127Z,83.97
2023-04-24T06:58:50.103Z,83.05
2023-04-24T06:59:55.123Z,83.87
2023-04-24T07:00:50.072Z,83.97
2023-04-24T07:01:50.198Z,84.07
2023-04-24T07:02:50.184Z,83.56
2023-04-24T07:03:50.189Z,84.17
2023-04-24T07:04:50.028Z,84.07
2023-04-24T07:05:50.017Z,83.66
2023-04-24T07:06:50.005Z,83.15
2023-04-24T07:07:50.039Z,82.91
2023-04-24T07:08:50.060Z,82.29
2023-04-24T07:09:50.079Z,80.69
2023-04-24T07:10:54.978Z,80.97
2023-04-24T07:11:49.946Z,80.56
2023-04-24T07:12:49.941Z,80.52
2023-04-24T07:13:49.948Z,78.64
2023-04-24T07:14:49.914Z,77.93
2023-04-24T07:15:50.029Z,76.87
2023-04-24T07:16:49.892Z,76.77
2023-04-24T07:17:49.953Z,75.41
2023-04-24T07:18:49.867Z,74.25
2023-04-24T07:19:49.866Z,72.62
2023-04-24T07:20:49.842Z,72.92
2023-04-24T07:21:54.855Z,71.06
2023-04-24T07:22:49.825Z,71.46
2023-04-24T07:23:49.811Z,71.02
2023-04-24T07:24:49.801Z,70.51
2023-04-24T07:25:49.846Z,69.87
2023-04-24T07:26:49.785Z,70.55
2023-04-24T07:27:49.773Z,69.76
2023-04-24T07:28:49.749Z,70.89
2023-04-24T07:29:49.748Z,71.09
2023-04-24T07:30:49.732Z,69.29
2023-04-24T07:31:49.790Z,69.53
2023-04-24T07:32:54.799Z,70.48
2023-04-24T07:33:49.711Z,71.09
2023-04-24T07:34:49.684Z,70.37
2023-04-24T07:35:49.678Z,70.72
2023-04-24T07:36:49.673Z,71.15
2023-04-24T07:37:49.679Z,72.89
2023-04-24T07:38:49.640Z,72.34
2023-04-24T07:39:49.633Z,72.65
2023-04-24T07:40:49.617Z,72.11
2023-04-24T07:41:49.608Z,71.09
2023-04-24T07:42:49.603Z,71.80
2023-04-24T07:43:54.680Z,70.85
2023-04-24T07:44:49.568Z,71.15
2023-04-24T07:45:49.682Z,70.61
2023-04-24T07:46:49.690Z,69.80
2023-04-24T07:47:49.647Z,70.51
2023-04-24T07:48:58.596Z,70.28
2023-04-24T07:49:49.549Z,69.43
2023-04-24T07:50:49.503Z,68.31
2023-04-24T07:51:49.490Z,68.82
2023-04-24T07:52:49.500Z,67.60
2023-04-24T07:53:49.465Z,68.07
2023-04-24T07:54:54.476Z,67.16
2023-04-24T07:55:49.458Z,67.05
2023-04-24T07:56:49.434Z,67.26
2023-04-24T07:57:49.491Z,68.38
2023-04-24T07:58:49.410Z,67.16
2023-04-24T07:59:49.407Z,66.47
2023-04-24T08:00:49.387Z,66.31
2023-04-24T08:01:49.400Z,65.70
2023-04-24T08:02:49.515Z,66.61
2023-04-24T08:03:49.578Z,64.93
2023-04-24T08:04:49.513Z,63.81
2023-04-24T08:05:54.430Z,62.72
2023-04-24T08:06:49.331Z,62.55
2023-04-24T08:07:49.322Z,61.91
2023-04-24T08:08:49.303Z,61.27
2023-04-24T08:09:49.304Z,60.46
2023-04-24T08:10:49.271Z,61.07
2023-04-24T08:11:49.265Z,61.20
2023-04-24T08:12:49.267Z,61.33
2023-04-24T08:13:49.307Z,62.65
2023-04-24T08:14:49.229Z,61.60
2023-04-24T08:15:49.256Z,60.97
2023-04-24T08:16:54.227Z,62.08
2023-04-24T08:17:49.228Z,62.08
2023-04-24T08:18:49.182Z,60.63
2023-04-24T08:19:49.356Z,61.24
2023-04-24T08:20:49.163Z,60.94
2023-04-24T08:21:49.153Z,60.50
2023-04-24T08:22:49.150Z,61.14
2023-04-24T08:23:49.130Z,60.94
2023-04-24T08:24:49.117Z,60.76
2023-04-24T08:25:49.163Z,60.56
2023-04-24T08:26:49.095Z,60.99
2023-04-24T08:27:54.113Z,60.89
2023-04-24T08:28:49.077Z,61.02
2023-04-24T08:29:49.057Z,61.53
2023-04-24T08:30:49.058Z,59.80
2023-04-24T08:31:49.127Z,60.82
2023-04-24T08:32:49.058Z,61.22
2023-04-24T08:33:49.010Z,60.85
2023-04-24T08:34:49.858Z,60.64
2023-04-24T08:35:49.004Z,61.05
2023-04-24T08:36:48.990Z,60.52
2023-04-24T08:37:49.019Z,61.10
2023-04-24T08:38:53.971Z,61.60
2023-04-24T08:39:48.940Z,60.59
2023-04-24T08:40:48.936Z,61.60
2023-04-24T08:41:48.918Z,61.27
2023-04-24T08:42:49.707Z,60.97
2023-04-24T08:43:49.433Z,60.53
2023-04-24T08:44:48.884Z,59.92
2023-04-24T08:45:48.913Z,59.82
2023-04-24T08:46:48.946Z,59.72
2023-04-24T08:47:48.881Z,59.41
2023-04-24T08:48:48.864Z,60.02
2023-04-24T08:49:53.849Z,59.84
2023-04-24T08:50:48.819Z,59.57
2023-04-24T08:51:48.889Z,59.37
2023-04-24T08:52:48.806Z,59.80
2023-04-24T08:53:48.778Z,60.72
2023-04-24T08:54:48.786Z,61.22
2023-04-24T08:55:48.756Z,62.17
2023-04-24T08:56:48.742Z,62.07
2023-04-24T08:57:48.750Z,63.09
2023-04-24T08:58:48.721Z,62.68
2023-04-24T08:59:48.722Z,62.10
2023-04-24T09:00:53.741Z,62.17
2023-04-24T09:01:48.818Z,63.62
2023-04-24T09:02:48.779Z,63.86
2023-04-24T09:03:48.869Z,64.57
2023-04-24T09:04:48.965Z,65.62
2023-04-24T09:05:48.646Z,66.61
2023-04-24T09:06:48.651Z,67.05
2023-04-24T09:07:48.652Z,66.54
2023-04-24T09:08:48.622Z,66.85
2023-04-24T09:09:48.599Z,67.35
2023-04-24T09:10:50.587Z,66.94
2023-04-24T09:11:53.598Z,65.52
2023-04-24T09:12:48.591Z,66.13
2023-04-24T09:13:48.550Z,65.62
2023-04-24T09:14:48.542Z,65.52
2023-04-24T09:15:48.541Z,65.52
2023-04-24T09:16:48.607Z,65.11
2023-04-24T09:17:48.609Z,64.87
2023-04-24T09:18:48.514Z,64.81
2023-04-24T09:19:48.485Z,64.81
2023-04-24T09:20:48.476Z,65.01
2023-04-24T09:21:48.460Z,64.09
2023-04-24T09:22:53.497Z,64.90
2023-04-24T09:23:48.440Z,64.70
2023-04-24T09:24:48.445Z,65.11
2023-04-24T09:25:48.419Z,64.29
2023-04-24T09:26:48.407Z,64.70
2023-04-24T09:27:48.406Z,64.09
2023-04-24T09:28:48.377Z,64.17
2023-04-24T09:29:48.369Z,63.76
2023-04-24T09:30:48.361Z,63.35
2023-04-24T09:31:48.443Z,62.81
2023-04-24T09:32:48.375Z,63.62
2023-04-24T09:33:53.347Z,62.98
2023-04-24T09:34:48.310Z,62.17
2023-04-24T09:35:48.305Z,61.94
2023-04-24T09:36:48.288Z,62.75
2023-04-24T09:37:48.312Z,61.63
2023-04-24T09:38:48.303Z,61.63
2023-04-24T09:39:48.260Z,61.22
2023-04-24T09:40:48.245Z,61.22
2023-04-24T09:41:48.232Z,61.02
2023-04-24T09:42:48.231Z,60.31
2023-04-24T09:43:48.232Z,60.52
2023-04-24T09:44:58.890Z,61.33
2023-04-24T09:45:48.242Z,61.25
2023-04-24T09:46:48.181Z,60.85
2023-04-24T09:47:48.238Z,60.98
2023-04-24T09:48:48.157Z,61.05
2023-04-24T09:49:48.166Z,61.25
2023-04-24T09:50:48.172Z,61.59
2023-04-24T09:51:48.123Z,61.08
2023-04-24T09:52:48.118Z,61.38
2023-04-24T09:53:48.105Z,61.31
2023-04-24T09:54:48.107Z,62.33
2023-04-24T09:55:53.123Z,62.13
2023-04-24T09:56:48.062Z,62.20
2023-04-24T09:57:48.064Z,61.25
2023-04-24T09:58:48.047Z,61.97
2023-04-24T09:59:48.036Z,61.22
2023-04-24T10:00:48.026Z,61.10
2023-04-24T10:01:48.080Z,60.72
2023-04-24T10:02:48.084Z,60.69
2023-04-24T10:03:48.010Z,60.59
2023-04-24T10:04:48.002Z,60.41
2023-04-24T10:05:47.966Z,60.59
2023-04-24T10:06:52.979Z,60.61
2023-04-24T10:07:50.077Z,60.69
2023-04-24T10:08:47.937Z,60.82
2023-04-24T10:09:47.923Z,60.52
2023-04-24T10:10:47.929Z,60.92
2023-04-24T10:11:47.900Z,61.33
2023-04-24T10:12:47.892Z,61.46
2023-04-24T10:13:47.896Z,62.17
2023-04-24T10:14:48.673Z,62.02
2023-04-24T10:15:47.999Z,63.15
2023-04-24T10:16:47.918Z,63.86
2023-04-24T10:17:52.890Z,63.32
2023-04-24T10:18:47.827Z,63.93
2023-04-24T10:19:47.810Z,63.83
2023-04-24T10:20:47.807Z,62.94
2023-04-24T10:21:47.787Z,63.35
2023-04-24T10:22:47.776Z,63.56
2023-04-24T10:23:47.782Z,63.53
2023-04-24T10:24:47.752Z,63.53
2023-04-24T10:25:47.757Z,63.26
2023-04-24T10:26:47.759Z,61.91
2023-04-24T10:27:47.722Z,62.39
2023-04-24T10:28:52.740Z,62.05
2023-04-24T10:29:47.698Z,60.53
2023-04-24T10:30:47.690Z,59.59
2023-04-24T10:31:48.029Z,59.56
2023-04-24T10:32:47.718Z,58.22
2023-04-24T10:33:47.663Z,57.60
2023-04-24T10:34:47.640Z,58.01
2023-04-24T10:35:47.629Z,58.01
2023-04-24T10:36:47.618Z,58.82
2023-04-24T10:37:47.605Z,58.49
2023-04-24T10:38:47.612Z,57.28
2023-04-24T10:39:52.606Z,57.42
2023-04-24T10:40:47.693Z,57.09
2023-04-24T10:41:47.572Z,56.38
2023-04-24T10:42:47.577Z,55.77
2023-04-24T10:43:47.631Z,55.37
2023-04-24T10:44:47.528Z,56.21
2023-04-24T10:45:47.515Z,57.04
2023-04-24T10:46:47.566Z,56.95
2023-04-24T10:47:47.528Z,56.97
2023-04-24T10:48:47.600Z,57.17
2023-04-24T10:49:47.474Z,58.01
2023-04-24T10:50:52.487Z,58.72
2023-04-24T10:51:47.448Z,58.11
2023-04-24T10:52:47.435Z,58.65
2023-04-24T10:53:47.439Z,59.05
2023-04-24T10:54:47.521Z,58.24
2023-04-24T10:55:47.402Z,57.73
2023-04-24T10:56:47.390Z,58.85
2023-04-24T10:57:47.384Z,57.78
2023-04-24T10:58:47.449Z,57.68
2023-04-24T10:59:47.360Z,58.52
2023-04-24T11:00:47.439Z,58.95
2023-04-24T11:01:52.353Z,58.95
2023-04-24T11:02:47.461Z,59.08
2023-04-24T11:03:47.541Z,59.16
2023-04-24T11:04:47.477Z,59.79
2023-04-24T11:05:47.294Z,59.46
2023-04-24T11:06:47.381Z,59.36
2023-04-24T11:07:47.262Z,60.07
2023-04-24T11:08:47.265Z,59.16
2023-04-24T11:09:47.252Z,58.95
2023-04-24T11:10:47.255Z,59.08
2023-04-24T11:11:47.225Z,59.48
2023-04-24T11:12:52.308Z,60.60
2023-04-24T11:13:47.202Z,60.60
2023-04-24T11:14:47.214Z,59.79
2023-04-24T11:15:47.186Z,59.18
2023-04-24T11:16:47.256Z,58.98
2023-04-24T11:17:47.153Z,59.48
2023-04-24T11:18:47.233Z,58.95
2023-04-24T11:19:47.127Z,60.40
2023-04-24T11:20:47.117Z,59.69
2023-04-24T11:21:47.107Z,60.81
2023-04-24T11:22:47.117Z,60.27
2023-04-24T11:23:52.110Z,59.26
2023-04-24T11:24:47.117Z,58.72
2023-04-24T11:25:47.056Z,58.82
2023-04-24T11:26:47.047Z,59.03
2023-04-24T11:27:47.034Z,59.30
2023-04-24T11:28:47.037Z,57.68
2023-04-24T11:29:47.006Z,57.68
2023-04-24T11:30:47.073Z,57.30
2023-04-24T11:31:47.031Z,57.40
2023-04-24T11:32:47.010Z,57.78
2023-04-24T11:33:46.964Z,56.87
2023-04-24T11:34:51.993Z,55.96
2023-04-24T11:35:46.950Z,56.77
2023-04-24T11:36:47.041Z,56.90
2023-04-24T11:37:49.519Z,57.33
2023-04-24T11:38:46.911Z,57.20
2023-04-24T11:39:46.907Z,56.49
2023-04-24T11:40:46.889Z,56.29
2023-04-24T11:41:46.879Z,56.79
2023-04-24T11:42:46.951Z,57.03
2023-04-24T11:43:46.853Z,56.95
2023-04-24T11:44:46.848Z,57.05
2023-04-24T11:45:52.031Z,57.35
2023-04-24T11:46:46.837Z,57.38
2023-04-24T11:47:46.893Z,57.68
2023-04-24T11:48:46.821Z,58.09
2023-04-24T11:49:46.791Z,59.01
2023-04-24T11:50:46.772Z,58.80
2023-04-24T11:51:53.279Z,59.31
2023-04-24T11:52:46.759Z,59.41
2023-04-24T11:53:47.754Z,59.31
2023-04-24T11:54:46.818Z,58.53
2023-04-24T11:55:46.714Z,58.94
2023-04-24T11:56:51.730Z,59.37
2023-04-24T11:57:46.689Z,59.06
2023-04-24T11:58:46.699Z,59.57
2023-04-24T11:59:46.673Z,59.39
2023-04-24T12:00:46.787Z,59.47
2023-04-24T12:01:46.667Z,59.57
2023-04-24T12:02:46.811Z,60.59
2023-04-24T12:03:46.750Z,60.08
2023-04-24T12:04:46.905Z,59.50
2023-04-24T12:05:46.771Z,59.09
2023-04-24T12:06:46.694Z,59.30
2023-04-24T12:07:51.601Z,59.09
2023-04-24T12:08:46.585Z,59.30
2023-04-24T12:09:47.629Z,59.09
2023-04-24T12:10:46.549Z,59.70
2023-04-24T12:11:46.536Z,59.57
2023-04-24T12:12:46.640Z,57.59
2023-04-24T12:13:46.517Z,57.25
2023-04-24T12:14:46.526Z,56.41
2023-04-24T12:15:46.517Z,56.59
2023-04-24T12:16:46.480Z,55.58
2023-04-24T12:17:46.537Z,56.09
2023-04-24T12:18:51.565Z,56.05
2023-04-24T12:19:46.474Z,56.46
2023-04-24T12:20:46.434Z,55.52
2023-04-24T12:21:46.435Z,55.43
2023-04-24T12:22:46.425Z,55.96
2023-04-24T12:23:46.397Z,56.09
2023-04-24T12:24:46.469Z,55.63
2023-04-24T12:25:46.371Z,55.43
2023-04-24T12:26:46.373Z,55.43
2023-04-24T12:27:46.366Z,55.85
2023-04-24T12:28:46.352Z,55.65
2023-04-24T12:29:51.361Z,55.65
2023-04-24T12:30:46.431Z,56.29
2023-04-24T12:31:46.459Z,56.70
2023-04-24T12:32:46.371Z,57.33
2023-04-24T12:33:46.305Z,57.25
2023-04-24T12:34:46.290Z,56.54
2023-04-24T12:35:46.265Z,56.54
2023-04-24T12:36:46.287Z,54.92
2023-04-24T12:37:47.648Z,55.63
2023-04-24T12:38:46.229Z,56.06
2023-04-24T12:39:46.231Z,55.76
2023-04-24T12:40:51.226Z,56.19
2023-04-24T12:41:46.204Z,56.19
2023-04-24T12:42:46.249Z,57.31
2023-04-24T12:43:46.171Z,57.92
2023-04-24T12:44:46.177Z,57.81
2023-04-24T12:45:46.185Z,57.03
2023-04-24T12:46:46.206Z,57.13
2023-04-24T12:47:46.128Z,57.03
2023-04-24T12:48:46.249Z,58.15
2023-04-24T12:49:46.133Z,57.56
2023-04-24T12:50:47.282Z,57.43
2023-04-24T12:51:51.103Z,57.54
2023-04-24T12:52:46.075Z,57.92